Tamms, Illinois
Current Conditions -  °F | °C
As of 4:15 AM on Friday 21 Nov 2014 (Local Time) from KCIR Reporting Station
Clear Clear  
Wind Chill: 25°   Ceiling: Unl
Heat Index: 32°   Visibility: 10mi
Dew Point: 23°   Wind: 8mph
Humidity: 70%   Direction: 60°ENE
Pressure: 30.37"   Gusts: NA
Location:  37.24°N, 89.27°W
Report Text: KCIR 211015Z AUTO 06007KT 10SM CLR 00/M05 A3037 RMK AO2 T00001048
Loading
Personal Weather Stations






























Interactive Weather Map New forecast layout! Learn more

10-Day Weather Forecast

Advertisements
Track Severe Weather on mobile